Time;durP1;ratioP1;P1;durP2;ratioP2;P2;SDS_P1;SDS_P2;PMS_P1;PMS_P2;Temp;Humidity;BMP_temperature;BMP_pressure;BME280_temperature;BME280_humidity;BME280_pressure;Samples;Min_cycle;Max_cycle;Signal;HPM_P1;HPM_P2
2022/07/19 00:01:27;;;;;;;7.40;2.93;;;21.50;29.20;;;;;;5080639;28;20905;-77
2022/07/19 00:03:54;;;;;;;3.17;2.60;;;21.50;29.50;;;;;;5078723;28;20546;-77
2022/07/19 00:06:21;;;;;;;4.00;2.47;;;21.40;29.10;;;;;;5076805;28;20452;-76
2022/07/19 00:08:47;;;;;;;4.90;2.73;;;21.50;29.10;;;;;;5076499;28;20430;-77
2022/07/19 00:11:16;;;;;;;3.43;2.80;;;21.50;28.80;;;;;;5077551;28;20453;-76
2022/07/19 00:13:43;;;;;;;6.17;3.27;;;21.40;28.80;;;;;;5086796;28;20470;-76
2022/07/19 00:16:10;;;;;;;4.77;2.97;;;21.40;29.10;;;;;;5085944;28;20488;-76
2022/07/19 00:18:36;;;;;;;5.50;2.90;;;21.30;29.20;;;;;;5095677;28;20445;-77
2022/07/19 00:21:04;;;;;;;4.17;3.13;;;21.30;29.40;;;;;;5096281;28;20485;-75
2022/07/19 00:23:30;;;;;;;5.30;3.13;;;21.20;29.80;;;;;;5096863;28;20446;-76
2022/07/19 00:25:57;;;;;;;4.33;2.90;;;21.20;30.30;;;;;;5097228;28;20447;-78
2022/07/19 00:28:26;;;;;;;5.57;3.20;;;21.10;29.70;;;;;;5098071;28;20434;-75
2022/07/19 00:30:53;;;;;;;3.03;2.80;;;21.10;29.70;;;;;;5098422;28;20442;-76
2022/07/19 00:33:20;;;;;;;4.07;3.00;;;21.00;29.60;;;;;;5077741;28;20431;-77
2022/07/19 00:35:47;;;;;;;3.90;2.80;;;21.00;29.60;;;;;;5078558;28;20463;-77
2022/07/19 00:38:15;;;;;;;4.60;3.00;;;20.90;29.50;;;;;;5076489;28;20435;-76
2022/07/19 00:40:43;;;;;;;3.50;3.20;;;20.90;29.60;;;;;;5079255;28;20460;-77
2022/07/19 00:43:11;;;;;;;5.73;2.67;;;20.90;29.60;;;;;;5082138;28;20527;-78
2022/07/19 00:45:39;;;;;;;4.30;2.60;;;20.90;29.60;;;;;;5078562;28;20486;-78
2022/07/19 00:48:06;;;;;;;3.80;2.60;;;20.80;29.50;;;;;;5081565;28;20460;-78
2022/07/19 00:50:33;;;;;;;8.80;2.70;;;20.80;29.50;;;;;;5092368;28;20435;-76
2022/07/19 00:53:05;;;;;;;4.30;3.37;;;20.70;29.40;;;;;;5096165;28;20459;-78
2022/07/19 00:55:35;;;;;;;3.20;2.60;;;20.70;29.40;;;;;;5098021;28;20472;-77
2022/07/19 00:58:03;;;;;;;2.60;2.40;;;20.70;29.40;;;;;;5097856;28;20421;-76
2022/07/19 01:00:33;;;;;;;3.53;2.70;;;20.60;29.30;;;;;;5097791;28;20438;-76
2022/07/19 01:03:02;;;;;;;4.90;3.03;;;20.70;29.40;;;;;;5097422;28;20454;-76
2022/07/19 01:05:29;;;;;;;5.43;3.17;;;20.70;29.40;;;;;;5097925;28;20524;-75
2022/07/19 01:07:56;;;;;;;3.10;2.50;;;20.70;29.40;;;;;;5098437;28;20441;-74
2022/07/19 01:10:23;;;;;;;2.90;2.60;;;20.60;29.30;;;;;;5097762;28;20432;-78
2022/07/19 01:12:50;;;;;;;4.53;3.07;;;20.60;29.30;;;;;;5093276;28;20448;-77
2022/07/19 01:15:19;;;;;;;4.70;2.50;;;20.60;29.30;;;;;;5094928;28;20472;-75
2022/07/19 01:17:46;;;;;;;4.17;2.90;;;20.50;29.40;;;;;;5097114;28;20486;-75
2022/07/19 01:20:15;;;;;;;4.50;2.60;;;20.40;29.40;;;;;;5096466;28;20534;-77
2022/07/19 01:22:45;;;;;;;3.10;2.80;;;20.40;29.80;;;;;;5094813;28;20500;-75
2022/07/19 01:25:12;;;;;;;3.43;2.70;;;20.40;29.70;;;;;;5084762;28;20439;-77
2022/07/19 01:27:40;;;;;;;6.97;2.60;;;20.50;29.20;;;;;;5094369;28;20753;-76
2022/07/19 01:30:12;;;;;;;3.30;3.00;;;20.50;29.20;;;;;;5075063;28;20453;-77
2022/07/19 01:32:38;;;;;;;3.20;2.70;;;20.50;29.20;;;;;;5065374;28;20445;-78
2022/07/19 01:35:07;;;;;;;3.37;2.97;;;20.60;29.30;;;;;;5059250;28;20454;-78
2022/07/19 01:37:34;;;;;;;4.20;2.77;;;20.60;29.30;;;;;;5059687;28;20465;-78
2022/07/19 01:40:02;;;;;;;3.20;3.00;;;20.60;29.30;;;;;;5058074;28;20952;-77
2022/07/19 01:42:29;;;;;;;5.37;3.27;;;20.50;29.20;;;;;;5067968;28;20977;-78
2022/07/19 01:44:56;;;;;;;3.90;2.97;;;20.50;29.20;;;;;;5078561;28;20499;-77
2022/07/19 01:47:23;;;;;;;3.93;2.50;;;20.50;29.20;;;;;;5076874;28;20789;-78
2022/07/19 01:49:50;;;;;;;4.97;3.10;;;20.50;29.20;;;;;;5078218;28;20460;-77
2022/07/19 01:52:17;;;;;;;4.90;3.23;;;20.50;29.20;;;;;;5075935;28;20531;-77
2022/07/19 01:54:45;;;;;;;3.90;2.77;;;20.50;29.20;;;;;;5074995;28;20838;-77
2022/07/19 01:57:13;;;;;;;3.73;2.70;;;20.40;29.20;;;;;;5076305;28;20458;-78
2022/07/19 01:59:40;;;;;;;3.90;3.10;;;20.40;29.80;;;;;;5078154;28;20459;-78
2022/07/19 02:02:07;;;;;;;3.13;2.83;;;20.40;29.20;;;;;;5077937;28;20439;-77
2022/07/19 02:04:37;;;;;;;4.60;3.07;;;20.30;29.50;;;;;;5077170;28;20478;-77
2022/07/19 02:07:06;;;;;;;4.40;2.93;;;20.30;29.40;;;;;;5078979;28;20467;-78
2022/07/19 02:09:33;;;;;;;3.50;2.93;;;20.20;29.60;;;;;;5074456;28;20936;-77
2022/07/19 02:11:59;;;;;;;3.20;2.90;;;20.30;29.10;;;;;;5072845;28;20456;-79
2022/07/19 02:14:28;;;;;;;6.53;3.27;;;20.30;29.20;;;;;;5063720;28;20476;-77
2022/07/19 02:16:54;;;;;;;4.30;2.27;;;20.30;29.10;;;;;;5074662;28;20532;-77
2022/07/19 02:19:21;;;;;;;3.97;3.53;;;20.30;29.10;;;;;;5061517;28;20445;-76
2022/07/19 02:21:48;;;;;;;5.50;2.70;;;20.30;29.10;;;;;;5072724;28;20445;-78
2022/07/19 02:24:15;;;;;;;3.30;2.90;;;20.30;29.10;;;;;;5058902;28;20473;-77
2022/07/19 02:26:42;;;;;;;3.10;2.90;;;20.20;29.10;;;;;;5070456;28;20497;-79
2022/07/19 02:29:10;;;;;;;4.63;3.30;;;20.20;29.00;;;;;;5080110;28;20453;-77
2022/07/19 02:31:38;;;;;;;4.33;2.80;;;20.30;29.10;;;;;;5079990;28;20448;-77
2022/07/19 02:34:05;;;;;;;4.00;2.93;;;20.30;29.10;;;;;;5079843;28;20448;-78
2022/07/19 02:36:32;;;;;;;3.90;3.10;;;20.30;29.70;;;;;;5078685;28;20505;-77
2022/07/19 02:38:59;;;;;;;4.70;3.30;;;20.40;29.20;;;;;;5064405;28;20919;-78
2022/07/19 02:41:26;;;;;;;3.20;3.00;;;20.30;29.10;;;;;;5054511;28;20858;-76
2022/07/19 02:43:53;;;;;;;3.83;3.00;;;20.30;29.10;;;;;;5055430;28;20802;-77
2022/07/19 02:46:20;;;;;;;4.60;2.90;;;20.20;29.00;;;;;;5047441;28;20453;-78
2022/07/19 02:48:48;;;;;;;3.63;2.60;;;20.10;29.40;;;;;;5049513;28;20456;-76
2022/07/19 02:51:14;;;;;;;2.33;2.13;;;20.00;29.80;;;;;;5048182;28;20510;-76
2022/07/19 02:53:41;;;;;;;5.97;3.07;;;20.00;30.10;;;;;;5044022;28;20458;-77
2022/07/19 02:56:08;;;;;;;4.10;2.60;;;19.90;30.30;;;;;;5047357;28;20486;-77
2022/07/19 02:58:35;;;;;;;3.57;2.50;;;19.90;30.30;;;;;;5044695;28;20541;-76
2022/07/19 03:01:02;;;;;;;3.23;2.93;;;19.80;30.40;;;;;;5041966;28;20826;-77
2022/07/19 03:03:48;;;;;;;2.93;2.73;;;19.80;30.50;;;;;;5040028;28;20450;-78
2022/07/19 03:06:19;;;;;;;4.20;3.27;;;19.80;30.90;;;;;;5046581;28;20461;-77
2022/07/19 03:08:46;;;;;;;3.90;2.97;;;19.70;31.10;;;;;;5041870;28;20448;-76
2022/07/19 03:11:13;;;;;;;3.70;3.23;;;19.60;31.00;;;;;;5034087;28;20426;-77
2022/07/19 03:13:41;;;;;;;7.53;4.00;;;19.70;31.20;;;;;;5033798;28;20431;-76
2022/07/19 03:16:08;;;;;;;3.13;2.83;;;19.70;31.30;;;;;;5033852;28;20956;-77
2022/07/19 03:18:34;;;;;;;3.50;2.83;;;19.60;31.30;;;;;;5039639;28;20454;-77
2022/07/19 03:21:02;;;;;;;3.73;3.20;;;19.60;31.40;;;;;;5043678;28;20428;-77
2022/07/19 03:23:33;;;;;;;2.70;2.50;;;19.60;31.00;;;;;;5046166;28;20453;-77
2022/07/19 03:26:00;;;;;;;5.57;3.07;;;19.70;30.70;;;;;;5038682;28;20484;-77
2022/07/19 03:28:27;;;;;;;3.33;3.03;;;19.70;30.50;;;;;;5038212;28;20500;-77
2022/07/19 03:30:54;;;;;;;3.27;3.00;;;19.70;30.50;;;;;;5038161;28;20432;-76
2022/07/19 03:33:21;;;;;;;4.70;2.87;;;19.70;30.70;;;;;;5038839;28;20496;-76
2022/07/19 03:35:48;;;;;;;4.63;3.17;;;19.60;31.00;;;;;;5038939;28;20478;-77
2022/07/19 03:38:16;;;;;;;7.50;3.17;;;19.60;31.10;;;;;;5036757;28;20809;-77
2022/07/19 03:40:47;;;;;;;3.33;3.03;;;19.60;31.20;;;;;;5038120;28;20454;-77
2022/07/19 03:43:14;;;;;;;4.07;3.63;;;19.60;31.30;;;;;;5037017;28;20459;-76
2022/07/19 03:45:41;;;;;;;7.10;3.70;;;19.50;31.50;;;;;;5051589;28;20484;-76
2022/07/19 03:48:08;;;;;;;4.17;3.13;;;19.50;31.60;;;;;;5062557;28;20897;-76
2022/07/19 03:50:35;;;;;;;3.80;2.83;;;19.50;31.50;;;;;;5061351;28;20452;-76
2022/07/19 03:53:01;;;;;;;3.50;3.10;;;19.50;31.50;;;;;;5061248;28;20895;-76
2022/07/19 03:55:28;;;;;;;4.10;3.03;;;19.50;31.60;;;;;;5057425;28;20444;-76
2022/07/19 03:57:56;;;;;;;3.33;2.93;;;19.50;31.60;;;;;;5057160;28;20470;-77
2022/07/19 04:00:24;;;;;;;7.73;3.43;;;19.50;31.60;;;;;;5056949;28;21000;-77
2022/07/19 04:02:51;;;;;;;4.10;2.90;;;19.50;31.70;;;;;;5057388;28;20456;-76
2022/07/19 04:05:17;;;;;;;4.10;3.23;;;19.50;32.60;;;;;;5056715;28;20857;-79
2022/07/19 04:07:44;;;;;;;5.53;3.20;;;19.50;31.80;;;;;;5056273;28;20423;-77
2022/07/19 04:10:11;;;;;;;3.43;3.13;;;19.50;31.80;;;;;;5056117;28;20428;-76
2022/07/19 04:12:38;;;;;;;4.60;2.77;;;19.60;31.80;;;;;;5055896;28;20449;-77
2022/07/19 04:15:09;;;;;;;6.07;3.30;;;19.60;31.40;;;;;;5057939;28;20447;-77
2022/07/19 04:17:36;;;;;;;3.57;3.27;;;19.70;31.40;;;;;;5056587;28;20476;-76
2022/07/19 04:20:04;;;;;;;5.60;2.67;;;19.70;31.20;;;;;;5056121;28;20535;-77
2022/07/19 04:22:31;;;;;;;3.83;2.80;;;19.70;31.30;;;;;;5056395;28;20530;-77
2022/07/19 04:24:58;;;;;;;3.10;2.90;;;19.70;31.10;;;;;;5056172;28;20815;-77
2022/07/19 04:27:25;;;;;;;5.40;3.23;;;19.80;30.80;;;;;;5056607;28;20445;-77
2022/07/19 04:29:52;;;;;;;3.77;3.47;;;19.80;30.80;;;;;;5056138;28;20459;-78
2022/07/19 04:32:20;;;;;;;3.80;3.20;;;19.90;30.90;;;;;;5057119;28;20449;-77
2022/07/19 04:34:47;;;;;;;5.80;3.13;;;19.90;31.00;;;;;;5056437;28;20472;-78
2022/07/19 04:37:14;;;;;;;4.87;3.30;;;19.90;30.80;;;;;;5056416;28;20603;-77
2022/07/19 04:39:41;;;;;;;5.80;3.50;;;20.00;30.80;;;;;;5061684;28;20459;-77
2022/07/19 04:42:10;;;;;;;3.40;3.10;;;20.10;30.50;;;;;;5063029;28;20423;-77
2022/07/19 04:44:37;;;;;;;3.23;2.90;;;20.20;30.10;;;;;;5063885;28;20503;-76
2022/07/19 04:47:04;;;;;;;3.80;2.73;;;20.20;30.00;;;;;;5059601;28;20464;-77
2022/07/19 04:49:32;;;;;;;3.77;3.43;;;20.20;30.10;;;;;;5065000;28;20923;-78
2022/07/19 04:51:59;;;;;;;6.83;3.70;;;20.30;29.90;;;;;;5077668;28;20461;-77
2022/07/19 04:54:26;;;;;;;6.33;3.30;;;20.50;29.90;;;;;;5084205;28;20453;-77
2022/07/19 04:56:53;;;;;;;4.63;2.93;;;20.50;29.20;;;;;;5079047;28;20808;-79
2022/07/19 04:59:20;;;;;;;5.10;3.27;;;20.60;29.30;;;;;;5058734;28;20424;-79
2022/07/19 05:01:47;;;;;;;3.37;2.90;;;20.70;29.40;;;;;;5057677;28;20569;-79
2022/07/19 05:04:14;;;;;;;3.93;3.57;;;20.80;29.50;;;;;;5056745;28;20458;-78
2022/07/19 05:06:42;;;;;;;3.73;3.00;;;21.10;29.70;;;;;;5059722;28;20515;-79
2022/07/19 05:09:10;;;;;;;3.57;3.27;;;21.50;28.90;;;;;;5056484;28;20996;-80
2022/07/19 05:11:37;;;;;;;3.93;3.40;;;21.80;28.10;;;;;;5079240;28;20426;-80
2022/07/19 05:14:04;;;;;;;4.70;3.10;;;22.50;27.20;;;;;;5080733;28;20540;-78
2022/07/19 05:16:31;;;;;;;4.40;3.27;;;22.90;26.50;;;;;;5096840;28;20461;-79
2022/07/19 05:18:57;;;;;;;3.70;2.97;;;23.00;26.50;;;;;;5093762;28;20454;-77
2022/07/19 05:21:24;;;;;;;3.63;3.33;;;23.40;26.00;;;;;;5095224;28;20504;-77
2022/07/19 05:23:53;;;;;;;3.60;2.80;;;23.40;25.60;;;;;;5092730;28;20716;-79
2022/07/19 05:26:20;;;;;;;6.70;3.13;;;23.30;26.00;;;;;;5087014;28;20525;-78
2022/07/19 05:28:47;;;;;;;3.30;3.00;;;23.50;26.40;;;;;;5085752;28;20475;-80
2022/07/19 05:31:14;;;;;;;3.00;2.63;;;24.10;24.80;;;;;;5080512;28;20425;-78
2022/07/19 05:33:41;;;;;;;3.40;3.10;;;24.40;24.60;;;;;;5078709;28;20452;-80
2022/07/19 05:36:10;;;;;;;3.87;3.20;;;24.20;24.80;;;;;;5078621;28;20516;-79
2022/07/19 05:38:38;;;;;;;7.20;3.20;;;24.30;24.70;;;;;;5077142;28;20476;-79
2022/07/19 05:41:07;;;;;;;3.90;3.23;;;24.50;23.90;;;;;;5081178;28;20473;-79
2022/07/19 05:43:35;;;;;;;3.20;2.90;;;24.40;24.40;;;;;;5077394;28;20519;-78
2022/07/19 05:46:02;;;;;;;2.93;2.73;;;24.50;24.60;;;;;;5079282;28;20475;-79
2022/07/19 05:48:29;;;;;;;3.90;2.83;;;24.50;24.60;;;;;;5080579;28;20488;-78
2022/07/19 05:50:56;;;;;;;5.00;3.17;;;25.10;24.30;;;;;;5077612;28;20811;-79
2022/07/19 05:53:23;;;;;;;6.60;3.10;;;25.30;23.90;;;;;;5082789;28;20427;-79
2022/07/19 05:55:50;;;;;;;7.20;3.20;;;25.10;24.30;;;;;;5081080;28;20510;-78
2022/07/19 05:58:18;;;;;;;3.27;2.97;;;24.90;24.20;;;;;;5080277;28;20486;-79
2022/07/19 06:03:26;;;;;;;7.03;3.00;;;25.80;23.00;;;;;;5081161;28;20430;-79
2022/07/19 06:05:53;;;;;;;4.37;3.03;;;26.00;23.10;;;;;;5088974;28;20472;-78
2022/07/19 06:08:20;;;;;;;3.93;3.23;;;25.80;22.90;;;;;;5082998;28;20456;-80
2022/07/19 06:10:47;;;;;;;4.73;3.10;;;25.60;23.20;;;;;;5086663;28;20437;-79
2022/07/19 06:13:14;;;;;;;3.33;3.03;;;26.00;23.10;;;;;;5088700;28;20457;-79
2022/07/19 06:15:42;;;;;;;4.67;3.03;;;26.20;23.20;;;;;;5091909;28;20440;-78
2022/07/19 06:18:09;;;;;;;6.93;3.70;;;26.40;22.70;;;;;;5088899;28;20465;-80
2022/07/19 06:20:36;;;;;;;7.23;3.30;;;27.10;21.60;;;;;;5081005;28;20456;-79
2022/07/19 06:23:03;;;;;;;5.13;2.87;;;27.10;21.70;;;;;;5084508;28;20478;-80
2022/07/19 06:25:30;;;;;;;5.37;3.03;;;27.10;21.20;;;;;;5082805;28;20483;-79
2022/07/19 06:27:57;;;;;;;2.67;2.47;;;26.70;22.20;;;;;;5081520;28;20454;-79
2022/07/19 06:30:24;;;;;;;5.43;3.00;;;26.60;22.60;;;;;;5082550;28;20447;-78
2022/07/19 06:32:53;;;;;;;9.57;2.97;;;26.80;21.80;;;;;;5082981;28;20480;-80
2022/07/19 06:35:20;;;;;;;5.23;2.93;;;26.70;22.00;;;;;;5080164;28;20555;-80
2022/07/19 06:37:47;;;;;;;4.73;3.30;;;26.90;21.90;;;;;;5082197;28;20492;-78
2022/07/19 06:40:14;;;;;;;8.13;3.30;;;27.20;21.30;;;;;;5086815;28;20491;-79
2022/07/19 06:42:41;;;;;;;5.70;3.17;;;27.50;21.20;;;;;;5089374;28;20488;-79
2022/07/19 06:45:09;;;;;;;5.73;2.77;;;27.30;21.30;;;;;;5083039;28;20500;-78
2022/07/19 06:47:36;;;;;;;7.93;4.37;;;27.50;21.30;;;;;;5084310;28;20444;-79
2022/07/19 06:50:05;;;;;;;5.83;3.23;;;27.60;20.70;;;;;;5086378;28;20457;-79
2022/07/19 06:52:32;;;;;;;3.23;2.93;;;27.60;21.00;;;;;;5082125;28;20539;-78
2022/07/19 06:54:59;;;;;;;6.17;3.50;;;28.00;20.50;;;;;;5084858;28;20483;-79
2022/07/19 06:57:26;;;;;;;3.60;2.53;;;28.00;20.10;;;;;;5085225;28;20447;-79
2022/07/19 06:59:53;;;;;;;4.93;3.30;;;28.20;20.20;;;;;;5089205;28;20444;-79
2022/07/19 07:02:20;;;;;;;4.77;3.50;;;28.00;21.00;;;;;;5089019;28;20451;-78
2022/07/19 07:04:47;;;;;;;7.00;2.63;;;27.30;21.70;;;;;;5090474;28;20538;-78
2022/07/19 07:07:15;;;;;;;5.00;3.20;;;26.70;22.30;;;;;;5084406;28;20449;-79
2022/07/19 07:09:42;;;;;;;4.03;2.90;;;26.60;22.70;;;;;;5081404;28;20544;-78
2022/07/19 07:12:09;;;;;;;4.60;2.73;;;26.50;22.90;;;;;;5081043;28;20519;-78
2022/07/19 07:14:36;;;;;;;5.60;3.23;;;26.60;22.90;;;;;;5079968;28;20491;-78
2022/07/19 07:17:03;;;;;;;4.20;3.40;;;26.50;22.80;;;;;;5079489;28;20459;-78
2022/07/19 07:19:30;;;;;;;10.50;3.43;;;26.60;22.60;;;;;;5079581;28;20470;-77
2022/07/19 07:21:59;;;;;;;4.13;3.50;;;26.80;22.80;;;;;;5080111;28;20959;-77
2022/07/19 07:24:28;;;;;;;4.00;3.30;;;26.80;22.80;;;;;;5077618;28;20902;-76
2022/07/19 07:26:55;;;;;;;4.73;3.07;;;27.10;22.30;;;;;;5078046;28;20542;-78
2022/07/19 07:29:22;;;;;;;5.20;3.30;;;27.10;22.00;;;;;;5077021;28;20973;-78
2022/07/19 07:31:48;;;;;;;4.77;2.90;;;27.20;21.70;;;;;;5076685;28;20947;-78
2022/07/19 07:34:15;;;;;;;5.30;3.33;;;27.40;21.40;;;;;;5076805;28;20561;-77
2022/07/19 07:36:43;;;;;;;3.43;3.13;;;27.50;22.00;;;;;;5080059;28;20455;-77
2022/07/19 07:39:11;;;;;;;4.20;2.87;;;27.60;21.50;;;;;;5079106;28;20848;-78
2022/07/19 07:41:40;;;;;;;9.23;3.73;;;27.70;21.40;;;;;;5080861;28;20458;-77
2022/07/19 07:44:07;;;;;;;4.10;3.27;;;27.70;21.40;;;;;;5081750;28;20451;-77
2022/07/19 07:46:34;;;;;;;8.90;3.40;;;28.00;21.10;;;;;;5082013;28;20459;-78
2022/07/19 07:49:01;;;;;;;9.27;3.90;;;28.00;21.10;;;;;;5093835;28;20449;-79
2022/07/19 07:51:28;;;;;;;5.23;2.90;;;28.10;21.20;;;;;;5096479;28;20433;-79
2022/07/19 07:53:55;;;;;;;3.30;3.00;;;28.40;20.80;;;;;;5098524;28;20523;-79
2022/07/19 07:56:22;;;;;;;3.23;3.00;;;28.50;20.60;;;;;;5097397;28;20517;-80
2022/07/19 07:58:54;;;;;;;5.93;3.30;;;28.60;20.30;;;;;;5098590;28;20446;-78
2022/07/19 08:01:21;;;;;;;3.00;2.80;;;28.80;20.50;;;;;;5097392;28;20510;-79
2022/07/19 08:03:48;;;;;;;5.10;3.03;;;28.90;20.00;;;;;;5093922;28;20753;-79
2022/07/19 08:06:15;;;;;;;9.87;2.77;;;29.00;19.80;;;;;;5093003;28;20495;-78
2022/07/19 08:08:42;;;;;;;6.20;3.50;;;29.10;19.80;;;;;;5093335;28;20478;-78
2022/07/19 08:11:10;;;;;;;2.80;2.60;;;29.20;19.30;;;;;;5094427;28;20440;-79
2022/07/19 08:13:37;;;;;;;4.43;2.90;;;29.30;19.50;;;;;;5093773;28;20449;-79
2022/07/19 08:16:06;;;;;;;3.20;2.87;;;29.50;18.60;;;;;;5093983;28;20477;-79
2022/07/19 08:18:33;;;;;;;5.57;2.57;;;29.50;18.20;;;;;;5097592;28;20549;-78
2022/07/19 08:21:00;;;;;;;5.00;3.03;;;29.60;18.30;;;;;;5096577;28;20420;-77
2022/07/19 08:23:27;;;;;;;8.00;3.30;;;29.80;18.40;;;;;;5096632;28;20544;-77
2022/07/19 08:25:54;;;;;;;6.63;3.07;;;29.90;18.50;;;;;;5097503;28;20488;-79
2022/07/19 08:28:21;;;;;;;3.00;2.73;;;30.00;18.50;;;;;;5097696;28;20449;-79
2022/07/19 08:30:48;;;;;;;4.00;3.33;;;30.00;18.50;;;;;;5095702;28;20437;-78
2022/07/19 08:33:16;;;;;;;3.40;3.10;;;30.20;19.20;;;;;;5090204;28;20471;-78
2022/07/19 08:35:43;;;;;;;3.27;2.83;;;30.40;18.70;;;;;;5086024;28;20486;-79
2022/07/19 08:38:10;;;;;;;5.50;2.83;;;30.60;17.60;;;;;;5084505;28;20474;-79
2022/07/19 08:40:41;;;;;;;3.17;2.93;;;30.60;17.80;;;;;;5083421;28;20462;-80
2022/07/19 08:43:10;;;;;;;3.30;3.00;;;30.70;17.40;;;;;;5087373;28;20438;-79
2022/07/19 08:45:39;;;;;;;6.53;3.13;;;30.90;17.40;;;;;;5083679;28;20498;-80
2022/07/19 08:48:08;;;;;;;3.47;2.63;;;31.10;16.50;;;;;;5083183;28;20898;-79
2022/07/19 08:50:36;;;;;;;5.30;3.17;;;31.10;15.90;;;;;;5081258;28;20577;-80
2022/07/19 08:53:04;;;;;;;4.97;2.70;;;31.20;15.90;;;;;;5081143;28;20455;-79
2022/07/19 08:55:31;;;;;;;7.23;3.40;;;31.40;15.40;;;;;;5084349;28;20474;-79
2022/07/19 08:57:57;;;;;;;8.80;2.83;;;31.60;15.50;;;;;;5082791;28;20487;-79
2022/07/19 09:00:24;;;;;;;3.50;2.93;;;31.80;15.10;;;;;;5082131;28;20929;-80
2022/07/19 09:02:53;;;;;;;4.77;3.23;;;31.90;15.20;;;;;;5082799;28;20233;-79
2022/07/19 09:05:21;;;;;;;3.43;2.50;;;31.80;14.70;;;;;;5084470;28;20478;-81
2022/07/19 09:08:04;;;;;;;4.73;2.30;;;31.90;13.00;;;;;;5083692;28;20530;-78
2022/07/19 09:10:32;;;;;;;4.87;2.47;;;31.90;10.80;;;;;;5089359;28;20548;-81
2022/07/19 09:13:07;;;;;;;5.23;2.43;;;32.10;10.90;;;;;;5088926;28;20544;-80
2022/07/19 09:15:49;;;;;;;7.00;2.97;;;32.30;11.00;;;;;;5090724;28;20452;-80
2022/07/19 09:18:18;;;;;;;6.63;2.73;;;32.40;11.00;;;;;;5088429;28;20478;-78
2022/07/19 09:20:46;;;;;;;5.30;3.13;;;32.50;12.50;;;;;;5091553;28;20447;-79
2022/07/19 09:23:15;;;;;;;7.77;2.73;;;32.70;12.70;;;;;;5093260;28;20545;-79
2022/07/19 09:25:43;;;;;;;3.13;2.90;;;32.50;12.90;;;;;;5093277;28;20459;-79
2022/07/19 09:28:10;;;;;;;3.33;2.50;;;32.50;12.50;;;;;;5089542;28;20484;-79
2022/07/19 09:30:40;;;;;;;3.77;2.73;;;32.40;12.30;;;;;;5083830;28;21059;-79
2022/07/19 09:33:12;;;;;;;5.20;2.80;;;32.40;12.80;;;;;;5088345;28;20501;-80
2022/07/19 09:35:42;;;;;;;3.20;2.37;;;32.60;12.30;;;;;;5088464;28;20951;-79
2022/07/19 09:38:18;;;;;;;5.70;2.43;;;32.80;11.30;;;;;;5085877;28;20457;-77
2022/07/19 09:40:45;;;;;;;6.23;2.90;;;33.00;10.40;;;;;;5079441;28;20457;-79
2022/07/19 09:43:12;;;;;;;5.00;2.43;;;32.80;11.30;;;;;;5079253;28;20530;-78
2022/07/19 09:45:39;;;;;;;6.47;2.80;;;32.90;11.30;;;;;;5085442;28;20462;-83
2022/07/19 09:48:06;;;;;;;6.67;2.90;;;33.00;11.40;;;;;;5097004;28;20452;-83
2022/07/19 09:50:33;;;;;;;15.17;3.57;;;33.10;11.00;;;;;;5097307;28;20464;-82
2022/07/19 09:53:03;;;;;;;9.00;3.00;;;33.10;10.80;;;;;;5096894;28;20478;-81
2022/07/19 09:55:31;;;;;;;2.80;2.60;;;33.30;11.10;;;;;;5097765;28;20478;-78
2022/07/19 09:58:01;;;;;;;7.10;2.93;;;33.20;10.70;;;;;;5097044;28;20517;-77
2022/07/19 10:00:28;;;;;;;3.27;2.70;;;33.20;11.10;;;;;;5094045;28;20570;-78
2022/07/19 10:02:56;;;;;;;6.20;2.77;;;33.30;10.50;;;;;;5085380;28;20455;-78
2022/07/19 10:05:25;;;;;;;5.30;2.80;;;33.00;10.30;;;;;;5083261;28;21000;-79
2022/07/19 10:07:52;;;;;;;6.30;2.60;;;33.10;9.80;;;;;;5079677;28;20460;-78
2022/07/19 10:10:21;;;;;;;7.00;3.17;;;33.40;10.50;;;;;;5088233;28;20462;-79
2022/07/19 10:12:52;;;;;;;5.33;2.47;;;33.70;9.90;;;;;;5094425;28;20461;-78
2022/07/19 10:15:20;;;;;;;9.03;2.77;;;34.00;10.00;;;;;;5097823;28;20466;-81
2022/07/19 10:18:09;;;;;;;6.27;2.80;;;33.90;9.20;;;;;;5335731;22;20481;-80
2022/07/19 10:20:38;;;;;;;8.30;2.90;;;33.60;9.30;;;;;;5116987;28;20480;-82
2022/07/19 10:23:05;;;;;;;2.53;2.23;;;33.50;9.30;;;;;;5102288;28;20443;-79
2022/07/19 10:25:41;;;;;;;3.40;2.83;;;33.70;9.40;;;;;;5103279;28;20538;-78
2022/07/19 10:28:32;;;;;;;2.60;2.40;;;33.80;8.80;;;;;;5100049;28;20458;-81
2022/07/19 10:31:00;;;;;;;9.83;2.27;;;33.90;7.90;;;;;;5101627;28;20427;-80
2022/07/19 10:33:30;;;;;;;5.63;3.20;;;33.80;7.90;;;;;;5101695;28;20451;-78
2022/07/19 10:35:58;;;;;;;2.73;2.53;;;34.10;8.20;;;;;;5096206;28;20473;-78
2022/07/19 10:38:25;;;;;;;3.40;2.20;;;34.10;7.50;;;;;;5102361;28;20456;-82
2022/07/19 10:40:56;;;;;;;4.43;2.20;;;34.00;7.40;;;;;;5105504;28;20463;-80
2022/07/19 10:43:24;;;;;;;6.37;2.30;;;33.90;7.30;;;;;;5099951;28;20482;-77
2022/07/19 10:46:13;;;;;;;7.53;2.47;;;33.90;7.30;;;;;;5094998;28;20470;-78
2022/07/19 10:48:42;;;;;;;4.03;2.10;;;34.10;7.10;;;;;;5101443;28;20481;-78
2022/07/19 10:51:12;;;;;;;2.30;2.10;;;33.80;7.30;;;;;;5095721;28;20545;-78
2022/07/19 10:54:02;;;;;;;6.73;2.43;;;33.90;7.00;;;;;;5096005;28;20449;-79
2022/07/19 10:56:33;;;;;;;4.83;2.63;;;34.20;6.90;;;;;;5096415;28;20428;-80
2022/07/19 10:59:02;;;;;;;5.10;2.20;;;34.40;6.90;;;;;;5099476;28;20547;-79
2022/07/19 11:01:33;;;;;;;3.50;2.30;;;34.40;6.80;;;;;;5099611;28;20458;-80
2022/07/19 11:04:37;;;;;;;3.80;2.47;;;34.20;6.90;;;;;;5098507;28;20431;-78
2022/07/19 11:07:15;;;;;;;2.70;2.50;;;34.30;7.10;;;;;;5108971;28;20537;-79
2022/07/19 11:09:51;;;;;;;2.57;2.30;;;34.30;6.60;;;;;;5112507;28;20445;-78
2022/07/19 11:12:40;;;;;;;6.93;2.50;;;34.30;7.00;;;;;;5113022;28;20483;-79
2022/07/19 11:15:12;;;;;;;3.03;2.33;;;34.10;7.50;;;;;;5096456;28;20544;-81
2022/07/19 11:17:41;;;;;;;2.37;1.90;;;34.30;7.10;;;;;;5110710;28;20448;-80
2022/07/19 11:20:10;;;;;;;3.50;2.40;;;34.40;6.90;;;;;;5109900;28;20555;-79
2022/07/19 11:22:42;;;;;;;2.63;1.93;;;34.50;6.30;;;;;;5096232;28;20554;-78
2022/07/19 11:25:11;;;;;;;7.70;2.70;;;34.70;6.40;;;;;;5093927;28;20456;-78
2022/07/19 11:27:41;;;;;;;5.20;2.20;;;34.70;6.00;;;;;;5094772;28;20450;-78
2022/07/19 11:30:09;;;;;;;7.57;1.83;;;34.40;7.00;;;;;;5094457;28;20734;-78
2022/07/19 11:32:36;;;;;;;6.40;2.27;;;34.60;6.60;;;;;;5094687;28;20468;-78
2022/07/19 11:35:06;;;;;;;4.17;2.43;;;34.60;6.60;;;;;;5094646;28;20468;-77
2022/07/19 11:37:35;;;;;;;3.93;2.30;;;34.80;7.00;;;;;;5094317;28;20461;-79
2022/07/19 11:40:03;;;;;;;2.97;2.47;;;34.70;6.50;;;;;;5097488;28;20574;-78
2022/07/19 11:42:35;;;;;;;3.00;2.20;;;34.40;6.40;;;;;;5099999;28;20453;-78
2022/07/19 11:45:13;;;;;;;5.90;2.50;;;34.60;6.30;;;;;;5103196;28;21032;-80
2022/07/19 11:47:43;;;;;;;5.80;3.20;;;34.50;7.10;;;;;;5105523;28;20485;-77
2022/07/19 11:50:13;;;;;;;4.53;2.60;;;34.80;5.80;;;;;;5098323;28;20449;-77
2022/07/19 11:52:48;;;;;;;3.83;2.53;;;34.80;5.90;;;;;;5101214;28;20457;-79
2022/07/19 11:55:15;;;;;;;3.90;2.33;;;34.90;5.80;;;;;;5102038;28;20500;-79
2022/07/19 11:57:42;;;;;;;2.80;2.20;;;35.10;5.60;;;;;;5102975;28;20451;-78
2022/07/19 12:00:11;;;;;;;9.13;2.30;;;35.00;5.70;;;;;;5100248;28;20482;-79
2022/07/19 12:02:53;;;;;;;2.83;2.43;;;34.90;5.60;;;;;;5101514;28;20920;-78
2022/07/19 12:05:21;;;;;;;7.90;2.63;;;35.00;5.60;;;;;;5094330;28;20485;-78
2022/07/19 12:07:49;;;;;;;9.00;2.70;;;35.20;5.00;;;;;;5095909;28;20434;-78
2022/07/19 12:10:38;;;;;;;7.07;2.50;;;35.50;4.00;;;;;;5096242;28;20867;-79
2022/07/19 12:13:08;;;;;;;2.87;2.40;;;35.70;3.80;;;;;;5095999;28;20436;-79
2022/07/19 12:15:49;;;;;;;7.13;2.17;;;35.80;3.90;;;;;;5095818;28;20532;-78
2022/07/19 12:18:18;;;;;;;2.30;2.20;;;35.50;4.80;;;;;;5095314;28;20470;-79
2022/07/19 12:21:22;;;;;;;10.23;2.80;;;35.30;4.70;;;;;;5100644;28;20493;-77
2022/07/19 12:24:12;;;;;;;8.20;2.80;;;35.10;4.70;;;;;;5102200;28;20403;-78
2022/07/19 12:26:40;;;;;;;2.37;2.17;;;35.00;4.90;;;;;;5101205;28;20895;-79
2022/07/19 12:29:22;;;;;;;4.20;2.67;;;35.30;4.60;;;;;;5102724;28;20489;-79
2022/07/19 12:31:50;;;;;;;2.80;2.30;;;35.40;4.30;;;;;;5108002;28;20562;-77
2022/07/19 12:34:18;;;;;;;2.47;2.27;;;35.70;4.30;;;;;;5106539;28;20477;-79
2022/07/19 12:36:46;;;;;;;5.43;1.97;;;36.00;4.00;;;;;;5098096;28;20464;-79
2022/07/19 12:39:22;;;;;;;6.13;2.80;;;35.70;3.80;;;;;;5097381;28;20459;-78
2022/07/19 12:42:03;;;;;;;4.53;2.60;;;35.50;3.80;;;;;;5097712;28;20447;-77
2022/07/19 12:44:31;;;;;;;6.13;2.60;;;35.40;3.70;;;;;;5102552;28;20478;-80
2022/07/19 12:46:58;;;;;;;6.00;2.57;;;35.50;3.70;;;;;;5103829;28;20461;-77
2022/07/19 12:49:25;;;;;;;9.40;2.80;;;35.50;3.70;;;;;;5100217;28;20444;-78
2022/07/19 12:51:53;;;;;;;3.93;2.60;;;35.60;3.80;;;;;;5096223;28;20873;-78
2022/07/19 12:54:20;;;;;;;5.53;2.70;;;35.70;3.80;;;;;;5100023;28;20480;-78
2022/07/19 12:56:47;;;;;;;4.97;2.93;;;36.10;4.00;;;;;;5099679;28;20460;-79
2022/07/19 13:01:58;;;;;;;10.43;3.07;;;36.60;3.40;;;;;;5096119;28;20430;-79